sensor_id;sensor_type;location;lat;lon;timestamp;P1;durP1;ratioP1;P2;durP2;ratioP2
73684;SDS011;61985;51.070;14.064;2022-09-24T00:01:38;6.07;;;3.90;;
73684;SDS011;61985;51.070;14.064;2022-09-24T00:04:10;7.07;;;4.50;;
73684;SDS011;61985;51.070;14.064;2022-09-24T00:06:45;7.60;;;4.18;;
73684;SDS011;61985;51.070;14.064;2022-09-24T00:09:16;9.10;;;4.65;;
73684;SDS011;61985;51.070;14.064;2022-09-24T00:11:43;7.37;;;4.57;;
73684;SDS011;61985;51.070;14.064;2022-09-24T00:14:09;6.03;;;3.90;;
73684;SDS011;61985;51.070;14.064;2022-09-24T00:16:35;7.55;;;4.15;;
73684;SDS011;61985;51.070;14.064;2022-09-24T00:19:03;6.47;;;3.83;;
73684;SDS011;61985;51.070;14.064;2022-09-24T00:21:39;8.00;;;4.68;;
73684;SDS011;61985;51.070;14.064;2022-09-24T00:24:12;6.93;;;4.00;;
73684;SDS011;61985;51.070;14.064;2022-09-24T00:26:59;8.13;;;3.90;;
73684;SDS011;61985;51.070;14.064;2022-09-24T00:29:29;8.30;;;4.30;;
73684;SDS011;61985;51.070;14.064;2022-09-24T00:31:58;8.60;;;4.15;;
73684;SDS011;61985;51.070;14.064;2022-09-24T00:34:26;7.18;;;3.92;;
73684;SDS011;61985;51.070;14.064;2022-09-24T00:36:52;6.45;;;4.00;;
73684;SDS011;61985;51.070;14.064;2022-09-24T00:39:18;6.07;;;3.65;;
73684;SDS011;61985;51.070;14.064;2022-09-24T00:41:47;7.47;;;4.20;;
73684;SDS011;61985;51.070;14.064;2022-09-24T00:50:18;7.25;;;4.15;;
73684;SDS011;61985;51.070;14.064;2022-09-24T00:55:19;6.47;;;3.85;;
73684;SDS011;61985;51.070;14.064;2022-09-24T01:01:05;6.97;;;3.60;;
73684;SDS011;61985;51.070;14.064;2022-09-24T01:03:43;6.47;;;4.10;;
73684;SDS011;61985;51.070;14.064;2022-09-24T01:06:19;8.55;;;4.38;;
73684;SDS011;61985;51.070;14.064;2022-09-24T01:09:11;8.50;;;4.20;;
73684;SDS011;61985;51.070;14.064;2022-09-24T01:17:26;6.18;;;3.55;;
73684;SDS011;61985;51.070;14.064;2022-09-24T01:34:31;8.35;;;3.97;;
73684;SDS011;61985;51.070;14.064;2022-09-24T01:37:17;5.75;;;4.00;;
73684;SDS011;61985;51.070;14.064;2022-09-24T01:39:50;8.93;;;4.47;;
73684;SDS011;61985;51.070;14.064;2022-09-24T01:42:24;7.05;;;4.43;;
73684;SDS011;61985;51.070;14.064;2022-09-24T01:45:00;7.38;;;4.53;;
73684;SDS011;61985;51.070;14.064;2022-09-24T01:47:30;6.65;;;4.05;;
73684;SDS011;61985;51.070;14.064;2022-09-24T01:50:15;8.68;;;4.38;;
73684;SDS011;61985;51.070;14.064;2022-09-24T01:53:15;7.35;;;4.40;;
73684;SDS011;61985;51.070;14.064;2022-09-24T01:59:24;6.82;;;4.00;;
73684;SDS011;61985;51.070;14.064;2022-09-24T02:05:00;7.05;;;3.90;;
73684;SDS011;61985;51.070;14.064;2022-09-24T02:07:39;8.80;;;4.70;;
73684;SDS011;61985;51.070;14.064;2022-09-24T02:10:24;7.32;;;4.53;;
73684;SDS011;61985;51.070;14.064;2022-09-24T02:13:12;7.97;;;4.78;;
73684;SDS011;61985;51.070;14.064;2022-09-24T02:15:43;7.60;;;4.38;;
73684;SDS011;61985;51.070;14.064;2022-09-24T02:18:16;7.53;;;4.70;;
73684;SDS011;61985;51.070;14.064;2022-09-24T02:20:48;7.35;;;4.63;;
73684;SDS011;61985;51.070;14.064;2022-09-24T02:23:29;8.05;;;4.80;;
73684;SDS011;61985;51.070;14.064;2022-09-24T02:26:17;7.78;;;4.47;;
73684;SDS011;61985;51.070;14.064;2022-09-24T02:28:43;8.35;;;4.68;;
73684;SDS011;61985;51.070;14.064;2022-09-24T02:31:38;8.23;;;4.85;;
73684;SDS011;61985;51.070;14.064;2022-09-24T02:34:08;8.07;;;4.60;;
73684;SDS011;61985;51.070;14.064;2022-09-24T02:37:12;8.25;;;4.55;;
73684;SDS011;61985;51.070;14.064;2022-09-24T02:39:41;8.13;;;4.50;;
73684;SDS011;61985;51.070;14.064;2022-09-24T02:42:25;6.65;;;3.83;;
73684;SDS011;61985;51.070;14.064;2022-09-24T02:44:58;7.22;;;4.40;;
73684;SDS011;61985;51.070;14.064;2022-09-24T02:47:25;8.23;;;4.75;;
73684;SDS011;61985;51.070;14.064;2022-09-24T02:49:59;8.20;;;4.57;;
73684;SDS011;61985;51.070;14.064;2022-09-24T02:52:25;8.85;;;4.50;;
73684;SDS011;61985;51.070;14.064;2022-09-24T02:54:53;8.55;;;4.78;;
73684;SDS011;61985;51.070;14.064;2022-09-24T02:57:19;7.88;;;4.20;;
73684;SDS011;61985;51.070;14.064;2022-09-24T02:59:47;8.07;;;4.45;;
73684;SDS011;61985;51.070;14.064;2022-09-24T03:02:12;8.48;;;5.10;;
73684;SDS011;61985;51.070;14.064;2022-09-24T03:04:39;14.05;;;5.13;;
73684;SDS011;61985;51.070;14.064;2022-09-24T03:07:04;10.48;;;4.95;;
73684;SDS011;61985;51.070;14.064;2022-09-24T03:09:50;11.43;;;4.55;;
73684;SDS011;61985;51.070;14.064;2022-09-24T03:12:18;7.25;;;4.50;;
73684;SDS011;61985;51.070;14.064;2022-09-24T03:14:44;8.20;;;5.00;;
73684;SDS011;61985;51.070;14.064;2022-09-24T03:17:09;7.28;;;4.47;;
73684;SDS011;61985;51.070;14.064;2022-09-24T03:19:35;8.57;;;5.10;;
73684;SDS011;61985;51.070;14.064;2022-09-24T03:22:00;7.70;;;4.88;;
73684;SDS011;61985;51.070;14.064;2022-09-24T03:24:25;8.30;;;4.85;;
73684;SDS011;61985;51.070;14.064;2022-09-24T03:26:51;9.38;;;5.10;;
73684;SDS011;61985;51.070;14.064;2022-09-24T03:29:16;8.02;;;4.55;;
73684;SDS011;61985;51.070;14.064;2022-09-24T03:32:02;7.70;;;5.00;;
73684;SDS011;61985;51.070;14.064;2022-09-24T03:34:27;8.27;;;5.00;;
73684;SDS011;61985;51.070;14.064;2022-09-24T03:36:52;8.50;;;4.72;;
73684;SDS011;61985;51.070;14.064;2022-09-24T03:39:18;11.20;;;5.00;;
73684;SDS011;61985;51.070;14.064;2022-09-24T03:41:43;9.30;;;5.50;;
73684;SDS011;61985;51.070;14.064;2022-09-24T03:44:17;8.40;;;5.47;;
73684;SDS011;61985;51.070;14.064;2022-09-24T03:46:48;11.05;;;5.60;;
73684;SDS011;61985;51.070;14.064;2022-09-24T03:49:14;9.10;;;5.30;;
73684;SDS011;61985;51.070;14.064;2022-09-24T03:51:44;8.77;;;4.75;;
73684;SDS011;61985;51.070;14.064;2022-09-24T03:54:09;7.97;;;4.78;;
73684;SDS011;61985;51.070;14.064;2022-09-24T03:56:35;10.60;;;5.50;;
73684;SDS011;61985;51.070;14.064;2022-09-24T03:59:01;9.93;;;5.57;;
73684;SDS011;61985;51.070;14.064;2022-09-24T04:01:26;8.95;;;4.78;;
73684;SDS011;61985;51.070;14.064;2022-09-24T04:04:10;10.25;;;5.75;;
73684;SDS011;61985;51.070;14.064;2022-09-24T04:06:38;8.15;;;5.18;;
73684;SDS011;61985;51.070;14.064;2022-09-24T04:09:03;8.77;;;5.15;;
73684;SDS011;61985;51.070;14.064;2022-09-24T04:11:29;8.65;;;5.50;;
73684;SDS011;61985;51.070;14.064;2022-09-24T04:13:54;10.68;;;5.05;;
73684;SDS011;61985;51.070;14.064;2022-09-24T04:16:19;8.25;;;5.18;;
73684;SDS011;61985;51.070;14.064;2022-09-24T04:18:45;7.05;;;4.68;;
73684;SDS011;61985;51.070;14.064;2022-09-24T04:21:12;9.50;;;5.38;;
73684;SDS011;61985;51.070;14.064;2022-09-24T04:23:37;8.02;;;4.75;;
73684;SDS011;61985;51.070;14.064;2022-09-24T04:26:02;9.90;;;5.22;;
73684;SDS011;61985;51.070;14.064;2022-09-24T04:28:28;9.50;;;4.50;;
73684;SDS011;61985;51.070;14.064;2022-09-24T04:30:54;9.93;;;4.88;;
73684;SDS011;61985;51.070;14.064;2022-09-24T04:33:20;9.30;;;4.63;;
73684;SDS011;61985;51.070;14.064;2022-09-24T04:35:45;9.23;;;4.68;;
73684;SDS011;61985;51.070;14.064;2022-09-24T04:38:11;8.02;;;5.07;;
73684;SDS011;61985;51.070;14.064;2022-09-24T04:40:37;11.75;;;5.50;;
73684;SDS011;61985;51.070;14.064;2022-09-24T04:43:03;8.77;;;4.95;;
73684;SDS011;61985;51.070;14.064;2022-09-24T04:45:30;8.95;;;4.57;;
73684;SDS011;61985;51.070;14.064;2022-09-24T04:47:56;8.77;;;4.75;;
73684;SDS011;61985;51.070;14.064;2022-09-24T04:53:13;8.55;;;5.47;;
73684;SDS011;61985;51.070;14.064;2022-09-24T04:55:39;9.43;;;5.88;;
73684;SDS011;61985;51.070;14.064;2022-09-24T04:58:08;8.35;;;5.32;;
73684;SDS011;61985;51.070;14.064;2022-09-24T05:00:34;10.70;;;5.97;;
73684;SDS011;61985;51.070;14.064;2022-09-24T05:03:01;9.20;;;5.85;;
73684;SDS011;61985;51.070;14.064;2022-09-24T05:05:40;8.32;;;4.93;;
73684;SDS011;61985;51.070;14.064;2022-09-24T05:08:05;8.85;;;5.38;;
73684;SDS011;61985;51.070;14.064;2022-09-24T05:10:31;8.32;;;5.05;;
73684;SDS011;61985;51.070;14.064;2022-09-24T05:12:57;9.63;;;5.80;;
73684;SDS011;61985;51.070;14.064;2022-09-24T05:26:14;10.23;;;6.78;;
73684;SDS011;61985;51.070;14.064;2022-09-24T05:29:18;10.90;;;6.60;;
73684;SDS011;61985;51.070;14.064;2022-09-24T05:35:22;11.85;;;5.93;;
73684;SDS011;61985;51.070;14.064;2022-09-24T05:37:48;12.20;;;5.75;;
73684;SDS011;61985;51.070;14.064;2022-09-24T05:40:17;12.10;;;6.50;;
73684;SDS011;61985;51.070;14.064;2022-09-24T05:45:52;9.65;;;5.35;;
73684;SDS011;61985;51.070;14.064;2022-09-24T08:35:34;8.82;;;5.07;;
73684;SDS011;61985;51.070;14.064;2022-09-24T08:38:00;12.25;;;5.82;;
73684;SDS011;61985;51.070;14.064;2022-09-24T08:40:28;9.75;;;5.22;;
73684;SDS011;61985;51.070;14.064;2022-09-24T08:45:23;8.48;;;4.90;;
73684;SDS011;61985;51.070;14.064;2022-09-24T10:21:10;8.10;;;4.22;;
73684;SDS011;61985;51.070;14.064;2022-09-24T10:23:38;6.80;;;4.20;;
73684;SDS011;61985;51.070;14.064;2022-09-24T10:26:12;6.25;;;3.88;;
73684;SDS011;61985;51.070;14.064;2022-09-24T10:28:44;6.00;;;3.85;;
73684;SDS011;61985;51.070;14.064;2022-09-24T10:31:39;9.38;;;3.88;;
73684;SDS011;61985;51.070;14.064;2022-09-24T10:34:16;6.63;;;4.07;;
73684;SDS011;61985;51.070;14.064;2022-09-24T10:36:51;7.38;;;4.40;;
73684;SDS011;61985;51.070;14.064;2022-09-24T10:39:23;6.85;;;4.03;;
73684;SDS011;61985;51.070;14.064;2022-09-24T10:41:49;9.57;;;4.25;;
73684;SDS011;61985;51.070;14.064;2022-09-24T10:44:16;11.95;;;5.45;;
73684;SDS011;61985;51.070;14.064;2022-09-24T10:52:05;5.93;;;3.78;;
73684;SDS011;61985;51.070;14.064;2022-09-24T10:54:54;5.82;;;3.85;;
73684;SDS011;61985;51.070;14.064;2022-09-24T10:57:30;6.63;;;3.80;;
73684;SDS011;61985;51.070;14.064;2022-09-24T11:00:07;8.77;;;3.75;;
73684;SDS011;61985;51.070;14.064;2022-09-24T11:02:43;6.78;;;3.88;;
73684;SDS011;61985;51.070;14.064;2022-09-24T11:05:23;5.57;;;3.28;;
73684;SDS011;61985;51.070;14.064;2022-09-24T11:10:46;7.65;;;3.60;;
73684;SDS011;61985;51.070;14.064;2022-09-24T11:13:20;6.65;;;3.97;;
73684;SDS011;61985;51.070;14.064;2022-09-24T11:15:56;8.07;;;4.00;;
73684;SDS011;61985;51.070;14.064;2022-09-24T11:18:45;8.13;;;3.90;;
73684;SDS011;61985;51.070;14.064;2022-09-24T11:30:08;6.20;;;3.60;;
73684;SDS011;61985;51.070;14.064;2022-09-24T11:38:39;7.30;;;3.53;;
73684;SDS011;61985;51.070;14.064;2022-09-24T11:47:09;14.10;;;6.15;;
73684;SDS011;61985;51.070;14.064;2022-09-24T11:52:12;8.07;;;3.70;;
73684;SDS011;61985;51.070;14.064;2022-09-24T11:57:27;5.97;;;3.30;;
73684;SDS011;61985;51.070;14.064;2022-09-24T11:59:57;6.90;;;3.20;;
73684;SDS011;61985;51.070;14.064;2022-09-24T12:05:14;5.68;;;2.80;;
73684;SDS011;61985;51.070;14.064;2022-09-24T12:07:52;4.95;;;2.70;;
73684;SDS011;61985;51.070;14.064;2022-09-24T12:12:49;6.95;;;3.20;;
73684;SDS011;61985;51.070;14.064;2022-09-24T12:15:22;6.30;;;3.05;;
73684;SDS011;61985;51.070;14.064;2022-09-24T12:18:00;4.50;;;3.10;;
73684;SDS011;61985;51.070;14.064;2022-09-24T12:20:30;5.15;;;3.13;;
73684;SDS011;61985;51.070;14.064;2022-09-24T12:23:01;6.35;;;3.35;;
73684;SDS011;61985;51.070;14.064;2022-09-24T12:25:36;6.90;;;3.58;;
73684;SDS011;61985;51.070;14.064;2022-09-24T12:28:04;6.85;;;3.67;;
73684;SDS011;61985;51.070;14.064;2022-09-24T12:30:33;5.45;;;3.45;;
73684;SDS011;61985;51.070;14.064;2022-09-24T12:33:26;4.65;;;3.38;;
73684;SDS011;61985;51.070;14.064;2022-09-24T12:38:34;8.25;;;3.70;;
73684;SDS011;61985;51.070;14.064;2022-09-24T12:41:31;5.15;;;3.20;;
73684;SDS011;61985;51.070;14.064;2022-09-24T12:44:22;6.03;;;3.15;;
73684;SDS011;61985;51.070;14.064;2022-09-24T12:46:54;4.72;;;3.17;;
73684;SDS011;61985;51.070;14.064;2022-09-24T12:51:51;5.53;;;3.42;;
73684;SDS011;61985;51.070;14.064;2022-09-24T12:54:23;5.78;;;3.47;;
73684;SDS011;61985;51.070;14.064;2022-09-24T12:57:38;5.85;;;3.13;;
73684;SDS011;61985;51.070;14.064;2022-09-24T13:02:23;13.00;;;3.78;;
73684;SDS011;61985;51.070;14.064;2022-09-24T13:05:03;6.63;;;3.40;;
73684;SDS011;61985;51.070;14.064;2022-09-24T13:07:40;6.38;;;3.65;;
73684;SDS011;61985;51.070;14.064;2022-09-24T13:12:40;5.25;;;3.40;;
73684;SDS011;61985;51.070;14.064;2022-09-24T13:15:06;8.65;;;3.40;;
73684;SDS011;61985;51.070;14.064;2022-09-24T13:17:46;5.30;;;3.20;;
73684;SDS011;61985;51.070;14.064;2022-09-24T13:20:22;6.00;;;3.20;;
73684;SDS011;61985;51.070;14.064;2022-09-24T13:22:56;5.45;;;3.70;;
73684;SDS011;61985;51.070;14.064;2022-09-24T13:25:24;5.75;;;3.40;;
73684;SDS011;61985;51.070;14.064;2022-09-24T13:28:01;5.72;;;3.40;;
73684;SDS011;61985;51.070;14.064;2022-09-24T13:35:59;5.93;;;3.33;;
73684;SDS011;61985;51.070;14.064;2022-09-24T13:38:32;7.28;;;4.40;;
73684;SDS011;61985;51.070;14.064;2022-09-24T13:41:02;7.22;;;3.67;;
73684;SDS011;61985;51.070;14.064;2022-09-24T13:44:00;4.68;;;3.13;;
73684;SDS011;61985;51.070;14.064;2022-09-24T13:46:30;4.97;;;3.50;;
73684;SDS011;61985;51.070;14.064;2022-09-24T13:48:58;5.70;;;3.20;;
73684;SDS011;61985;51.070;14.064;2022-09-24T13:51:28;7.68;;;3.63;;
73684;SDS011;61985;51.070;14.064;2022-09-24T13:54:02;5.70;;;3.55;;
73684;SDS011;61985;51.070;14.064;2022-09-24T13:56:30;5.80;;;3.78;;
73684;SDS011;61985;51.070;14.064;2022-09-24T13:59:03;6.95;;;3.75;;
73684;SDS011;61985;51.070;14.064;2022-09-24T14:01:39;8.50;;;3.42;;
73684;SDS011;61985;51.070;14.064;2022-09-24T14:04:13;5.55;;;3.33;;
73684;SDS011;61985;51.070;14.064;2022-09-24T14:06:47;10.10;;;3.50;;
73684;SDS011;61985;51.070;14.064;2022-09-24T14:11:54;5.88;;;4.00;;
73684;SDS011;61985;51.070;14.064;2022-09-24T14:14:44;6.70;;;3.70;;
73684;SDS011;61985;51.070;14.064;2022-09-24T14:17:12;7.38;;;3.85;;
73684;SDS011;61985;51.070;14.064;2022-09-24T14:19:38;7.63;;;3.28;;
73684;SDS011;61985;51.070;14.064;2022-09-24T14:22:04;5.55;;;3.58;;
73684;SDS011;61985;51.070;14.064;2022-09-24T14:24:41;6.18;;;3.30;;
73684;SDS011;61985;51.070;14.064;2022-09-24T14:27:12;8.93;;;4.72;;
73684;SDS011;61985;51.070;14.064;2022-09-24T14:29:51;10.35;;;5.28;;
73684;SDS011;61985;51.070;14.064;2022-09-24T14:34:54;7.18;;;3.65;;
73684;SDS011;61985;51.070;14.064;2022-09-24T14:37:26;8.90;;;3.70;;
73684;SDS011;61985;51.070;14.064;2022-09-24T14:40:03;7.05;;;3.88;;
73684;SDS011;61985;51.070;14.064;2022-09-24T14:42:43;7.53;;;3.67;;
73684;SDS011;61985;51.070;14.064;2022-09-24T14:45:19;5.68;;;3.72;;
73684;SDS011;61985;51.070;14.064;2022-09-24T14:48:32;4.43;;;2.90;;
73684;SDS011;61985;51.070;14.064;2022-09-24T14:50:52;4.95;;;3.17;;
73684;SDS011;61985;51.070;14.064;2022-09-24T14:55:58;7.13;;;3.97;;
73684;SDS011;61985;51.070;14.064;2022-09-24T15:00:53;5.05;;;3.55;;
73684;SDS011;61985;51.070;14.064;2022-09-24T15:06:25;5.97;;;3.60;;
73684;SDS011;61985;51.070;14.064;2022-09-24T15:11:28;6.40;;;3.83;;
73684;SDS011;61985;51.070;14.064;2022-09-24T15:14:00;7.00;;;3.80;;
73684;SDS011;61985;51.070;14.064;2022-09-24T15:16:36;6.75;;;4.18;;
73684;SDS011;61985;51.070;14.064;2022-09-24T15:21:30;6.63;;;3.70;;
73684;SDS011;61985;51.070;14.064;2022-09-24T15:23:55;7.10;;;4.28;;
73684;SDS011;61985;51.070;14.064;2022-09-24T15:26:21;6.93;;;4.20;;
73684;SDS011;61985;51.070;14.064;2022-09-24T15:28:51;7.75;;;4.05;;
73684;SDS011;61985;51.070;14.064;2022-09-24T15:31:16;6.95;;;3.88;;
73684;SDS011;61985;51.070;14.064;2022-09-24T15:33:41;5.72;;;3.78;;
73684;SDS011;61985;51.070;14.064;2022-09-24T15:36:07;6.88;;;4.00;;
73684;SDS011;61985;51.070;14.064;2022-09-24T15:38:34;7.10;;;4.18;;
73684;SDS011;61985;51.070;14.064;2022-09-24T15:40:59;7.10;;;4.10;;
73684;SDS011;61985;51.070;14.064;2022-09-24T15:43:25;5.70;;;3.70;;
73684;SDS011;61985;51.070;14.064;2022-09-24T15:45:51;6.57;;;3.80;;
73684;SDS011;61985;51.070;14.064;2022-09-24T15:48:16;6.47;;;4.05;;
73684;SDS011;61985;51.070;14.064;2022-09-24T15:50:43;6.55;;;4.10;;
73684;SDS011;61985;51.070;14.064;2022-09-24T15:55:42;6.63;;;4.35;;
73684;SDS011;61985;51.070;14.064;2022-09-24T15:58:10;6.63;;;3.85;;
73684;SDS011;61985;51.070;14.064;2022-09-24T16:00:38;5.70;;;3.10;;
73684;SDS011;61985;51.070;14.064;2022-09-24T16:03:03;5.95;;;3.90;;
73684;SDS011;61985;51.070;14.064;2022-09-24T16:05:29;7.28;;;4.70;;
73684;SDS011;61985;51.070;14.064;2022-09-24T16:07:54;7.25;;;4.53;;
73684;SDS011;61985;51.070;14.064;2022-09-24T16:10:20;8.10;;;4.45;;
73684;SDS011;61985;51.070;14.064;2022-09-24T16:12:45;7.72;;;4.55;;
73684;SDS011;61985;51.070;14.064;2022-09-24T16:15:11;7.05;;;4.10;;
73684;SDS011;61985;51.070;14.064;2022-09-24T16:17:39;6.07;;;4.25;;
73684;SDS011;61985;51.070;14.064;2022-09-24T16:20:07;6.47;;;4.00;;
73684;SDS011;61985;51.070;14.064;2022-09-24T16:22:35;7.75;;;4.43;;
73684;SDS011;61985;51.070;14.064;2022-09-24T16:25:00;7.57;;;4.53;;
73684;SDS011;61985;51.070;14.064;2022-09-24T16:27:25;7.68;;;4.65;;
73684;SDS011;61985;51.070;14.064;2022-09-24T16:29:53;7.43;;;4.13;;
73684;SDS011;61985;51.070;14.064;2022-09-24T16:32:22;6.30;;;4.30;;
73684;SDS011;61985;51.070;14.064;2022-09-24T16:34:47;6.40;;;4.13;;
73684;SDS011;61985;51.070;14.064;2022-09-24T16:37:12;7.25;;;3.85;;
73684;SDS011;61985;51.070;14.064;2022-09-24T16:39:40;25.77;;;14.98;;
73684;SDS011;61985;51.070;14.064;2022-09-24T16:42:14;9.43;;;5.70;;
73684;SDS011;61985;51.070;14.064;2022-09-24T16:44:40;8.30;;;5.50;;
73684;SDS011;61985;51.070;14.064;2022-09-24T16:47:11;7.50;;;4.47;;
73684;SDS011;61985;51.070;14.064;2022-09-24T16:49:40;11.38;;;4.82;;
73684;SDS011;61985;51.070;14.064;2022-09-24T16:52:06;6.85;;;4.40;;
73684;SDS011;61985;51.070;14.064;2022-09-24T16:54:32;8.85;;;4.80;;
73684;SDS011;61985;51.070;14.064;2022-09-24T16:56:57;13.48;;;5.30;;
73684;SDS011;61985;51.070;14.064;2022-09-24T16:59:26;8.48;;;4.70;;
73684;SDS011;61985;51.070;14.064;2022-09-24T17:01:51;6.45;;;4.25;;
73684;SDS011;61985;51.070;14.064;2022-09-24T17:04:17;9.32;;;4.70;;
73684;SDS011;61985;51.070;14.064;2022-09-24T17:06:43;7.20;;;4.65;;
73684;SDS011;61985;51.070;14.064;2022-09-24T17:09:25;9.80;;;5.30;;
73684;SDS011;61985;51.070;14.064;2022-09-24T17:12:09;7.50;;;5.00;;
73684;SDS011;61985;51.070;14.064;2022-09-24T17:14:44;7.47;;;4.60;;
73684;SDS011;61985;51.070;14.064;2022-09-24T17:17:09;6.72;;;4.57;;
73684;SDS011;61985;51.070;14.064;2022-09-24T17:19:34;7.88;;;5.03;;
73684;SDS011;61985;51.070;14.064;2022-09-24T17:22:00;7.38;;;4.70;;
73684;SDS011;61985;51.070;14.064;2022-09-24T17:24:25;9.48;;;4.55;;
73684;SDS011;61985;51.070;14.064;2022-09-24T17:26:51;7.47;;;5.40;;
73684;SDS011;61985;51.070;14.064;2022-09-24T17:29:18;11.10;;;5.85;;
73684;SDS011;61985;51.070;14.064;2022-09-24T17:31:46;8.70;;;5.47;;
73684;SDS011;61985;51.070;14.064;2022-09-24T17:34:11;9.63;;;6.07;;
73684;SDS011;61985;51.070;14.064;2022-09-24T17:36:39;12.20;;;5.57;;
73684;SDS011;61985;51.070;14.064;2022-09-24T17:39:05;10.20;;;6.05;;
73684;SDS011;61985;51.070;14.064;2022-09-24T17:41:35;10.07;;;6.15;;
73684;SDS011;61985;51.070;14.064;2022-09-24T17:44:01;10.93;;;6.38;;
73684;SDS011;61985;51.070;14.064;2022-09-24T17:46:30;9.65;;;5.72;;
73684;SDS011;61985;51.070;14.064;2022-09-24T17:48:57;10.45;;;6.20;;
73684;SDS011;61985;51.070;14.064;2022-09-24T17:51:25;10.27;;;6.50;;
73684;SDS011;61985;51.070;14.064;2022-09-24T17:53:53;9.85;;;5.93;;
73684;SDS011;61985;51.070;14.064;2022-09-24T17:56:20;9.05;;;5.78;;
73684;SDS011;61985;51.070;14.064;2022-09-24T17:58:50;11.57;;;6.70;;
73684;SDS011;61985;51.070;14.064;2022-09-24T18:01:20;10.10;;;6.40;;
73684;SDS011;61985;51.070;14.064;2022-09-24T18:03:50;8.65;;;5.82;;
73684;SDS011;61985;51.070;14.064;2022-09-24T18:06:17;9.52;;;6.25;;
73684;SDS011;61985;51.070;14.064;2022-09-24T18:08:42;12.00;;;7.38;;
73684;SDS011;61985;51.070;14.064;2022-09-24T18:11:11;9.57;;;6.70;;
73684;SDS011;61985;51.070;14.064;2022-09-24T18:13:50;14.75;;;7.57;;
73684;SDS011;61985;51.070;14.064;2022-09-24T18:16:18;10.80;;;6.53;;
73684;SDS011;61985;51.070;14.064;2022-09-24T18:18:44;11.10;;;7.45;;
73684;SDS011;61985;51.070;14.064;2022-09-24T18:21:11;10.90;;;7.25;;
73684;SDS011;61985;51.070;14.064;2022-09-24T18:23:38;13.27;;;7.90;;
73684;SDS011;61985;51.070;14.064;2022-09-24T18:26:11;11.68;;;7.43;;
73684;SDS011;61985;51.070;14.064;2022-09-24T18:28:59;9.93;;;6.50;;
73684;SDS011;61985;51.070;14.064;2022-09-24T18:31:25;10.90;;;6.70;;
73684;SDS011;61985;51.070;14.064;2022-09-24T18:33:52;9.98;;;6.43;;
73684;SDS011;61985;51.070;14.064;2022-09-24T18:36:21;11.30;;;6.75;;
73684;SDS011;61985;51.070;14.064;2022-09-24T18:38:47;12.82;;;7.05;;
73684;SDS011;61985;51.070;14.064;2022-09-24T18:41:14;9.05;;;6.10;;
73684;SDS011;61985;51.070;14.064;2022-09-24T18:43:52;10.38;;;6.25;;
73684;SDS011;61985;51.070;14.064;2022-09-24T18:46:35;11.50;;;6.05;;
73684;SDS011;61985;51.070;14.064;2022-09-24T18:49:03;8.82;;;5.72;;
73684;SDS011;61985;51.070;14.064;2022-09-24T18:51:34;8.30;;;5.75;;
73684;SDS011;61985;51.070;14.064;2022-09-24T18:56:34;10.13;;;5.72;;
73684;SDS011;61985;51.070;14.064;2022-09-24T18:59:21;9.82;;;5.60;;
73684;SDS011;61985;51.070;14.064;2022-09-24T19:04:25;9.73;;;5.93;;
73684;SDS011;61985;51.070;14.064;2022-09-24T19:06:58;9.10;;;6.32;;
73684;SDS011;61985;51.070;14.064;2022-09-24T19:09:34;10.05;;;6.00;;
73684;SDS011;61985;51.070;14.064;2022-09-24T19:11:59;8.23;;;5.32;;
73684;SDS011;61985;51.070;14.064;2022-09-24T19:17:04;8.07;;;5.40;;
73684;SDS011;61985;51.070;14.064;2022-09-24T19:20:04;6.82;;;5.00;;
73684;SDS011;61985;51.070;14.064;2022-09-24T19:25:26;11.85;;;5.30;;
73684;SDS011;61985;51.070;14.064;2022-09-24T19:28:01;8.70;;;5.43;;
73684;SDS011;61985;51.070;14.064;2022-09-24T19:30:33;9.05;;;5.05;;
73684;SDS011;61985;51.070;14.064;2022-09-24T19:33:06;8.85;;;5.30;;
73684;SDS011;61985;51.070;14.064;2022-09-24T19:35:33;8.65;;;5.70;;
73684;SDS011;61985;51.070;14.064;2022-09-24T19:38:09;8.85;;;5.10;;
73684;SDS011;61985;51.070;14.064;2022-09-24T19:40:35;8.30;;;5.07;;
73684;SDS011;61985;51.070;14.064;2022-09-24T19:43:00;7.68;;;5.18;;
73684;SDS011;61985;51.070;14.064;2022-09-24T19:45:36;9.50;;;5.25;;
73684;SDS011;61985;51.070;14.064;2022-09-24T19:48:01;7.43;;;4.55;;
73684;SDS011;61985;51.070;14.064;2022-09-24T19:50:27;8.23;;;5.07;;
73684;SDS011;61985;51.070;14.064;2022-09-24T19:52:56;10.63;;;5.97;;
73684;SDS011;61985;51.070;14.064;2022-09-24T19:55:21;7.90;;;5.07;;
73684;SDS011;61985;51.070;14.064;2022-09-24T19:57:47;7.95;;;5.07;;
73684;SDS011;61985;51.070;14.064;2022-09-24T20:00:14;9.77;;;5.90;;
73684;SDS011;61985;51.070;14.064;2022-09-24T20:02:39;10.40;;;6.68;;
73684;SDS011;61985;51.070;14.064;2022-09-24T20:05:05;7.50;;;5.10;;
73684;SDS011;61985;51.070;14.064;2022-09-24T20:07:31;9.65;;;5.38;;
73684;SDS011;61985;51.070;14.064;2022-09-24T20:09:57;9.10;;;6.10;;
73684;SDS011;61985;51.070;14.064;2022-09-24T20:12:22;8.57;;;5.88;;
73684;SDS011;61985;51.070;14.064;2022-09-24T20:14:48;9.35;;;6.07;;
73684;SDS011;61985;51.070;14.064;2022-09-24T20:17:13;9.35;;;6.70;;
73684;SDS011;61985;51.070;14.064;2022-09-24T20:19:39;11.02;;;6.93;;
73684;SDS011;61985;51.070;14.064;2022-09-24T20:22:05;9.63;;;5.80;;
73684;SDS011;61985;51.070;14.064;2022-09-24T20:24:31;11.60;;;6.78;;
73684;SDS011;61985;51.070;14.064;2022-09-24T20:26:56;10.77;;;7.20;;
73684;SDS011;61985;51.070;14.064;2022-09-24T20:29:41;10.25;;;6.53;;
73684;SDS011;61985;51.070;14.064;2022-09-24T20:32:07;10.45;;;7.18;;
73684;SDS011;61985;51.070;14.064;2022-09-24T20:34:34;10.45;;;7.13;;
73684;SDS011;61985;51.070;14.064;2022-09-24T20:37:00;10.55;;;6.88;;
73684;SDS011;61985;51.070;14.064;2022-09-24T20:39:27;12.65;;;7.25;;
73684;SDS011;61985;51.070;14.064;2022-09-24T20:41:54;10.82;;;6.88;;
73684;SDS011;61985;51.070;14.064;2022-09-24T20:44:20;12.77;;;6.15;;
73684;SDS011;61985;51.070;14.064;2022-09-24T20:46:48;11.73;;;6.57;;
73684;SDS011;61985;51.070;14.064;2022-09-24T20:49:18;9.90;;;6.22;;
73684;SDS011;61985;51.070;14.064;2022-09-24T20:51:51;11.65;;;6.32;;
73684;SDS011;61985;51.070;14.064;2022-09-24T20:54:18;10.63;;;6.65;;
73684;SDS011;61985;51.070;14.064;2022-09-24T20:56:52;9.35;;;6.28;;
73684;SDS011;61985;51.070;14.064;2022-09-24T20:59:18;9.90;;;5.88;;
73684;SDS011;61985;51.070;14.064;2022-09-24T21:01:44;10.25;;;6.60;;
73684;SDS011;61985;51.070;14.064;2022-09-24T21:04:18;10.80;;;6.15;;
73684;SDS011;61985;51.070;14.064;2022-09-24T21:06:45;9.82;;;6.38;;
73684;SDS011;61985;51.070;14.064;2022-09-24T21:09:29;10.63;;;6.13;;
73684;SDS011;61985;51.070;14.064;2022-09-24T21:11:54;9.35;;;5.53;;
73684;SDS011;61985;51.070;14.064;2022-09-24T21:14:20;8.80;;;5.53;;
73684;SDS011;61985;51.070;14.064;2022-09-24T21:16:45;8.80;;;6.00;;
73684;SDS011;61985;51.070;14.064;2022-09-24T21:19:12;9.48;;;5.82;;
73684;SDS011;61985;51.070;14.064;2022-09-24T21:21:38;8.98;;;6.00;;
73684;SDS011;61985;51.070;14.064;2022-09-24T21:24:04;7.90;;;5.93;;
73684;SDS011;61985;51.070;14.064;2022-09-24T21:26:32;9.35;;;6.20;;
73684;SDS011;61985;51.070;14.064;2022-09-24T21:31:32;10.30;;;6.30;;
73684;SDS011;61985;51.070;14.064;2022-09-24T21:33:58;12.15;;;5.32;;
73684;SDS011;61985;51.070;14.064;2022-09-24T21:36:28;10.48;;;5.53;;
73684;SDS011;61985;51.070;14.064;2022-09-24T21:39:03;9.02;;;5.50;;
73684;SDS011;61985;51.070;14.064;2022-09-24T21:41:33;8.52;;;5.40;;
73684;SDS011;61985;51.070;14.064;2022-09-24T21:44:00;8.57;;;5.80;;